Meteosat more information blitzortung!


Radar lluvias  rain snow radar


Website of another weatherstation

Website of another weatherstation



No requiere especial atención con respecto al clima.    No hay Alarmas

Informes METAR proximidad

   
LEDA - Lleida/Alguaire
Actualización: 15-08-2018 00:30
Despejado  
Despejado  
   Viento: SW 9.3 km/h
Viento: SW 9.3 km/h
Temperatura: 19°C
Punto de rocío: 14°C
Humedad: 73%
Baromètro: 1019 hPa
Nublado: Despejado
Visibilidad: More than 10 km
detalles de la nube: Despejado
LEDA 142230Z AUTO 23005KT 9999 NCD 19/14 Q1019
LEXJ - Santander
Actualización: 15-08-2018 00:30
Parcialmente nublado  
Parcialmente nublado  
   Viento: S 3.7 km/h
Viento: S 3.7 km/h
Temperatura: 19°C
Punto de rocío: 17°C
Humedad: 88%
Baromètro: 1023 hPa
Nublado: Parcialmente nublado
Visibilidad: 8 km
detalles de la nube: Parcialmente nublado 4400 ft
LEXJ 142230Z AUTO 18002KT 8000 BKN044 19/17 Q1023
LEBB - Bilbao
Actualización: 15-08-2018 00:30
Parcialmente nublado  
Parcialmente nublado  
   Viento: calma
Viento: calma
Temperatura: 20°C
Punto de rocío: 18°C
Humedad: 88%
Baromètro: 1023 hPa
Nublado: Parcialmente nublado
Visibilidad: More than 10 km
detalles de la nube: Parcialmente Nublado 3700 ft,
Parcialmente Nublado 4500 ft,
Parcialmente nublado 5000 ft
LEBB 142230Z AUTO 00000KT 9999 SCT037/// SCT045/// BKN050/// 20/18 Q1023
LEBL - Barcelona
Actualización: 15-08-2018 00:30
Parcialmente Nublado  
Parcialmente Nublado  
   Viento: varía 3.7 km/h
Viento: varía 3.7 km/h
Temperatura: 25°C
Punto de rocío: 19°C
Humedad: 69%
Baromètro: 1018 hPa
Nublado: Parcialmente Nublado
Visibilidad: More than 10 km
detalles de la nube: Nubes dispersas 3000 ft,
Parcialmente Nublado 5000 ft
LEBL 142230Z VRB02KT 9999 FEW030 SCT050 25/19 Q1018 NOSIG
LEMD - Madrid
Actualización: 15-08-2018 00:30
Despejado  
Despejado  
   Viento: NNW 9.3 km/h
Viento: NNW 9.3 km/h
Temperatura: 25°C
Punto de rocío: 8°C
Humedad: 34%
Baromètro: 1018 hPa
Visibilidad: More than 10 km
detalles de la nube: Despejado
LEMD 142230Z 34005KT 310V030 CAVOK 25/08 Q1018 NOSIG
 

Guión original por  Saratoga-weather.org Adaptado para la plantilla por  Weerstation Leuven

Usted encontrará nuestra información del tiempo también en:

Weather Underground

Iberian Peninsula Weather Network